WLG weather

Wellington International Airport
Wellington, Wellington Region, New Zealand

Public forecast

Using degrees Celsius for public forecast. Weather courtesy of forecast.io.

METAR (pilot weather report)

Retrieved 2019/03/19 18:30 UTC (3 minutes ago):

NZWN 191830Z AUTO 05003KT 9999 NCD 13/12 Q1025 NOSIG

TAF (pilot weather forecast)

Forecast is more than 12 hours old.

Retrieved 2019/03/18 06:18 UTC (2 days ago):

TAF NZWN 180507Z 1806/1906 18010KT 9999 FEW020 BECMG 1807/1809 03005KT BECMG 1900/1902 18010KT